createdAt,value
2019-03-21T00:04:27.487Z,64.43
2019-03-21T00:09:29.218Z,55.13
2019-03-21T00:14:57.461Z,61.83
2019-03-21T00:19:59.122Z,60.07
2019-03-21T00:25:00.816Z,66.37
2019-03-21T00:30:06.197Z,66.17
2019-03-21T00:35:09.424Z,64.60
2019-03-21T00:40:20.432Z,64.40
2019-03-21T00:45:22.316Z,73.90
2019-03-21T00:50:26.441Z,63.73
2019-03-21T00:55:31.427Z,72.30
2019-03-21T01:00:36.538Z,48.97
2019-03-21T01:05:39.459Z,63.47
2019-03-21T01:10:45.589Z,65.03
2019-03-21T01:15:52.868Z,63.10
2019-03-21T01:20:56.585Z,60.50
2019-03-21T01:26:06.646Z,75.50
2019-03-21T01:31:08.484Z,70.27
2019-03-21T01:36:10.441Z,65.20
2019-03-21T01:41:15.842Z,64.30
2019-03-21T01:46:20.585Z,70.23
2019-03-21T01:51:22.513Z,47.17
2019-03-21T01:56:26.933Z,78.80
2019-03-21T02:01:29.744Z,69.13
2019-03-21T02:06:31.452Z,86.33
2019-03-21T02:11:35.358Z,57.23
2019-03-21T02:16:36.996Z,57.50
2019-03-21T02:21:38.685Z,79.10
2019-03-21T02:26:40.335Z,81.17
2019-03-21T02:31:41.989Z,75.20
2019-03-21T02:36:44.552Z,67.27
2019-03-21T02:41:46.262Z,60.13
2019-03-21T02:46:47.989Z,51.27
2019-03-21T02:51:49.821Z,48.87
2019-03-21T02:56:51.624Z,44.87
2019-03-21T03:01:53.329Z,42.30
2019-03-21T03:06:55.027Z,43.73
2019-03-21T03:11:56.839Z,38.20
2019-03-21T03:16:59.050Z,43.97
2019-03-21T03:22:00.853Z,39.40
2019-03-21T03:27:02.753Z,39.37
2019-03-21T03:32:04.469Z,39.47
2019-03-21T03:37:06.207Z,51.00
2019-03-21T03:42:07.861Z,45.90
2019-03-21T03:47:09.652Z,50.80
2019-03-21T03:52:11.451Z,38.83
2019-03-21T03:57:13.148Z,41.73
2019-03-21T04:02:14.952Z,37.97
2019-03-21T04:07:16.653Z,37.13
2019-03-21T04:12:18.354Z,28.93
2019-03-21T04:17:20.450Z,38.83
2019-03-21T04:22:22.141Z,34.30
2019-03-21T04:27:23.844Z,36.33
2019-03-21T04:32:25.526Z,36.47
2019-03-21T04:37:27.222Z,30.77
2019-03-21T04:42:28.913Z,35.90
2019-03-21T04:47:30.814Z,38.00
2019-03-21T04:52:32.513Z,39.00
2019-03-21T04:57:34.582Z,38.40
2019-03-21T05:02:36.346Z,34.97
2019-03-21T05:07:38.019Z,39.83
2019-03-21T05:12:40.168Z,42.10
2019-03-21T05:17:42.136Z,43.43
2019-03-21T05:22:44.151Z,48.20
2019-03-21T05:27:45.809Z,38.43
2019-03-21T05:32:47.449Z,38.63
2019-03-21T05:37:49.133Z,42.97
2019-03-21T05:43:12.560Z,35.50
2019-03-21T05:48:15.341Z,40.47
2019-03-21T05:53:17.491Z,44.73
2019-03-21T05:59:26.967Z,49.30
2019-03-21T06:04:29.173Z,43.67
2019-03-21T06:09:31.093Z,44.80
2019-03-21T06:14:37.222Z,47.37
2019-03-21T06:19:55.147Z,37.20
2019-03-21T06:25:18.809Z,33.90
2019-03-21T06:30:20.676Z,42.70
2019-03-21T06:35:22.688Z,40.63
2019-03-21T06:40:24.452Z,41.60
2019-03-21T06:45:26.292Z,38.03
2019-03-21T06:50:28.931Z,34.07
2019-03-21T06:55:30.821Z,39.87
2019-03-21T07:00:43.602Z,34.50
2019-03-21T07:05:53.009Z,32.10
2019-03-21T07:10:54.987Z,28.57
2019-03-21T07:15:57.380Z,30.00
2019-03-21T07:21:01.138Z,37.50
2019-03-21T07:26:03.605Z,30.07
2019-03-21T07:31:08.515Z,29.03
2019-03-21T07:36:11.135Z,30.73
2019-03-21T07:41:12.920Z,31.83
2019-03-21T07:46:15.210Z,35.43
2019-03-21T07:51:19.570Z,43.50
2019-03-21T07:56:24.955Z,46.37
2019-03-21T08:01:27.039Z,58.83
2019-03-21T08:06:29.320Z,62.93
2019-03-21T08:11:31.313Z,67.80
2019-03-21T08:16:33.099Z,70.37
2019-03-21T08:21:34.913Z,68.90
2019-03-21T08:26:37.112Z,77.73
2019-03-21T08:31:38.778Z,78.13
2019-03-21T08:36:47.022Z,65.80
2019-03-21T08:41:54.921Z,73.90
2019-03-21T08:46:57.512Z,79.33
2019-03-21T08:51:59.256Z,76.20
2019-03-21T08:57:01.424Z,73.10
2019-03-21T09:02:03.095Z,53.73
2019-03-21T09:07:05.096Z,71.47
2019-03-21T09:12:06.794Z,67.53
2019-03-21T09:17:08.755Z,63.60
2019-03-21T09:22:10.513Z,64.13
2019-03-21T09:27:12.703Z,48.90
2019-03-21T09:32:14.438Z,54.83
2019-03-21T09:37:16.129Z,71.37
2019-03-21T09:42:17.771Z,57.37
2019-03-21T09:47:19.506Z,51.73
2019-03-21T09:52:21.591Z,52.23
2019-03-21T09:57:23.900Z,57.53
2019-03-21T10:02:31.865Z,49.43
2019-03-21T10:07:33.705Z,51.87
2019-03-21T10:12:35.514Z,36.60
2019-03-21T10:17:37.159Z,58.77
2019-03-21T10:22:40.122Z,53.90
2019-03-21T10:27:42.151Z,50.77
2019-03-21T10:32:43.857Z,60.17
2019-03-21T10:37:45.555Z,58.07
2019-03-21T10:42:47.205Z,57.57
2019-03-21T10:47:48.913Z,61.07
2019-03-21T10:52:50.645Z,58.33
2019-03-21T10:57:53.067Z,59.43
2019-03-21T11:02:54.827Z,77.17
2019-03-21T11:07:56.518Z,62.87
2019-03-21T11:12:58.221Z,48.93
2019-03-21T11:17:59.835Z,75.57
2019-03-21T11:23:01.572Z,64.60
2019-03-21T11:28:04.977Z,66.60
2019-03-21T11:33:06.858Z,61.67
2019-03-21T11:38:08.508Z,73.57
2019-03-21T11:43:10.459Z,69.50
2019-03-21T11:48:12.132Z,63.40
2019-03-21T11:53:13.880Z,56.93
2019-03-21T11:58:17.653Z,76.60
2019-03-21T12:03:19.682Z,68.33
2019-03-21T12:08:21.503Z,66.33
2019-03-21T12:13:23.098Z,79.83
2019-03-21T12:18:24.811Z,71.83
2019-03-21T12:23:26.504Z,57.60
2019-03-21T12:28:28.505Z,59.50
2019-03-21T12:33:30.130Z,58.53
2019-03-21T12:38:31.772Z,68.33
2019-03-21T12:43:33.555Z,66.60
2019-03-21T12:48:35.255Z,64.43
2019-03-21T12:53:37.039Z,54.07
2019-03-21T12:58:39.343Z,66.87
2019-03-21T13:03:41.019Z,55.23
2019-03-21T13:08:42.750Z,63.87
2019-03-21T13:13:44.443Z,62.40
2019-03-21T13:18:46.087Z,68.47
2019-03-21T13:23:47.714Z,69.63
2019-03-21T13:28:50.189Z,60.47
2019-03-21T13:33:51.829Z,65.70
2019-03-21T13:38:53.496Z,62.43
2019-03-21T13:43:55.162Z,52.70
2019-03-21T13:48:57.278Z,62.13
2019-03-21T13:54:16.616Z,58.87
2019-03-21T13:59:20.519Z,54.13
2019-03-21T14:04:22.151Z,61.73
2019-03-21T14:09:23.854Z,62.00
2019-03-21T14:14:25.443Z,59.73
2019-03-21T14:19:27.509Z,62.70
2019-03-21T14:24:29.134Z,51.20
2019-03-21T14:29:37.721Z,54.60
2019-03-21T14:34:40.933Z,69.63
2019-03-21T14:39:48.059Z,61.17
2019-03-21T14:44:50.402Z,61.00
2019-03-21T14:49:53.210Z,75.10
2019-03-21T14:54:58.708Z,56.37
2019-03-21T15:00:00.348Z,66.83
2019-03-21T15:05:04.712Z,58.53
2019-03-21T15:10:14.901Z,56.37
2019-03-21T15:15:16.780Z,73.50
2019-03-21T15:20:18.504Z,65.47
2019-03-21T15:25:20.392Z,61.90
2019-03-21T15:30:22.316Z,67.70
2019-03-21T15:35:24.544Z,77.43
2019-03-21T15:40:26.732Z,75.03
2019-03-21T15:45:28.585Z,68.57
2019-03-21T15:50:33.001Z,69.13
2019-03-21T15:55:37.160Z,61.13
2019-03-21T16:00:41.137Z,64.53
2019-03-21T16:05:43.198Z,68.20
2019-03-21T16:10:44.851Z,66.43
2019-03-21T16:15:46.524Z,50.73
2019-03-21T16:20:48.159Z,77.00
2019-03-21T16:25:49.820Z,80.53
2019-03-21T16:30:51.454Z,83.87
2019-03-21T16:35:53.822Z,84.30
2019-03-21T16:40:55.513Z,72.93
2019-03-21T16:45:57.175Z,83.67
2019-03-21T16:50:58.858Z,73.40
2019-03-21T16:56:01.465Z,71.77
2019-03-21T17:01:03.313Z,77.17
2019-03-21T17:06:05.361Z,79.83
2019-03-21T17:11:07.532Z,80.23
2019-03-21T17:16:09.257Z,77.13
2019-03-21T17:21:10.897Z,77.20
2019-03-21T17:26:12.623Z,78.57
2019-03-21T17:31:14.249Z,77.53
2019-03-21T17:36:16.415Z,80.53
2019-03-21T17:41:18.263Z,89.83
2019-03-21T17:46:19.999Z,86.30
2019-03-21T17:51:22.355Z,71.93
2019-03-21T17:56:24.305Z,60.67
2019-03-21T18:01:26.077Z,59.07
2019-03-21T18:06:28.127Z,78.93
2019-03-21T18:11:29.789Z,64.07
2019-03-21T18:16:31.438Z,76.30
2019-03-21T18:21:33.560Z,90.40
2019-03-21T18:26:35.244Z,79.53
2019-03-21T18:31:36.959Z,93.03
2019-03-21T18:36:38.949Z,90.67
2019-03-21T18:41:40.906Z,79.20
2019-03-21T18:46:43.151Z,65.63
2019-03-21T18:51:45.018Z,92.13
2019-03-21T18:56:47.163Z,99.50
2019-03-21T19:01:57.917Z,71.03
2019-03-21T19:06:53.129Z,76.97
2019-03-21T19:11:55.221Z,86.20
2019-03-21T19:16:57.028Z,71.17
2019-03-21T19:21:58.811Z,86.20
2019-03-21T19:27:00.619Z,75.97
2019-03-21T19:32:02.403Z,62.93
2019-03-21T19:37:04.299Z,71.97
2019-03-21T19:42:06.604Z,85.70
2019-03-21T19:47:08.365Z,75.87
2019-03-21T19:52:10.294Z,75.53
2019-03-21T19:57:12.592Z,80.90
2019-03-21T20:02:14.383Z,80.27
2019-03-21T20:07:16.060Z,69.97
2019-03-21T20:12:18.170Z,72.50
2019-03-21T20:17:19.767Z,88.30
2019-03-21T20:22:21.467Z,74.17
2019-03-21T20:27:23.272Z,74.70
2019-03-21T20:32:24.914Z,67.50
2019-03-21T20:37:27.207Z,69.53
2019-03-21T20:42:28.964Z,76.07
2019-03-21T20:47:30.619Z,70.17
2019-03-21T20:52:34.439Z,61.13
2019-03-21T20:57:37.673Z,73.20
2019-03-21T21:02:39.672Z,69.90
2019-03-21T21:07:41.356Z,48.37
2019-03-21T21:12:43.709Z,76.27
2019-03-21T21:17:45.303Z,59.90
2019-03-21T21:22:47.032Z,67.40
2019-03-21T21:27:50.230Z,71.43
2019-03-21T21:32:52.151Z,61.70
2019-03-21T21:37:54.206Z,73.77
2019-03-21T21:42:55.993Z,67.30
2019-03-21T21:47:57.663Z,87.40
2019-03-21T21:52:59.345Z,46.00
2019-03-21T21:58:01.759Z,69.07
2019-03-21T22:03:03.481Z,64.97
2019-03-21T22:08:05.185Z,97.90
2019-03-21T22:13:07.779Z,72.80
2019-03-21T22:18:09.786Z,66.97
2019-03-21T22:23:11.480Z,46.07
2019-03-21T22:28:13.121Z,70.33
2019-03-21T22:33:14.797Z,59.60
2019-03-21T22:38:16.404Z,58.27
2019-03-21T22:43:18.381Z,42.73
2019-03-21T22:48:20.042Z,55.57
2019-03-21T22:53:21.717Z,48.83
2019-03-21T22:58:31.586Z,52.13
2019-03-21T23:03:27.233Z,48.33
2019-03-21T23:08:28.909Z,53.80
2019-03-21T23:13:30.580Z,51.73
2019-03-21T23:18:32.368Z,49.87
2019-03-21T23:23:34.149Z,45.27
2019-03-21T23:28:35.923Z,57.27
2019-03-21T23:33:37.702Z,52.17
2019-03-21T23:38:39.787Z,37.60
2019-03-21T23:43:41.575Z,63.17
2019-03-21T23:48:43.350Z,36.50
2019-03-21T23:53:45.086Z,43.57
2019-03-21T23:58:46.918Z,39.40
